Time;durP1;ratioP1;P1;durP2;ratioP2;P2;SDS_P1;SDS_P2;PMS_P1;PMS_P2;Temp;Humidity;BMP_temperature;BMP_pressure;BME280_temperature;BME280_humidity;BME280_pressure;Samples;Min_cycle;Max_cycle;Signal;HPM_P1;HPM_P2
2022/01/05 00:02:10;;;;;;;;;;;4.50;99.90;;;;;;5051603;28;19916;-73
2022/01/05 00:04:35;;;;;;;;;;;4.50;99.90;;;;;;5052159;28;20375;-73
2022/01/05 00:07:02;;;;;;;;;;;4.50;99.90;;;;;;5050335;28;19905;-72
2022/01/05 00:09:27;;;;;;;;;;;4.50;99.90;;;;;;5051538;28;19905;-72
2022/01/05 00:11:53;;;;;;;;;;;4.60;99.90;;;;;;5049886;28;19915;-72
2022/01/05 00:14:18;;;;;;;;;;;4.60;99.90;;;;;;5051867;28;19931;-70
2022/01/05 00:16:44;;;;;;;;;;;4.60;99.90;;;;;;5051368;28;19932;-71
2022/01/05 00:19:10;;;;;;;;;;;4.70;99.90;;;;;;5049971;28;19971;-71
2022/01/05 00:21:35;;;;;;;;;;;4.70;99.90;;;;;;5051242;28;20000;-71
2022/01/05 00:24:02;;;;;;;;;;;4.80;99.90;;;;;;5051500;28;19913;-71
2022/01/05 00:26:27;;;;;;;;;;;4.90;99.90;;;;;;5051302;28;19931;-72
2022/01/05 00:28:54;;;;;;;;;;;4.90;99.90;;;;;;5049672;28;19912;-72
2022/01/05 00:31:19;;;;;;;;;;;4.90;99.90;;;;;;5051068;28;19905;-72
2022/01/05 00:33:45;;;;;;;;;;;4.80;99.90;;;;;;5051858;28;20342;-73
2022/01/05 00:36:11;;;;;;;;;;;4.90;99.90;;;;;;5044543;28;19905;-72
2022/01/05 00:38:36;;;;;;;;;;;4.90;99.90;;;;;;5031596;28;19920;-73
2022/01/05 00:41:02;;;;;;;;;;;5.00;99.90;;;;;;5037294;28;19917;-72
2022/01/05 00:43:28;;;;;;;;;;;4.90;99.90;;;;;;5051744;28;20238;-72
2022/01/05 00:45:54;;;;;;;;;;;5.00;99.90;;;;;;5037796;28;19926;-72
2022/01/05 00:48:19;;;;;;;;;;;5.00;99.90;;;;;;5070883;28;19913;-72
2022/01/05 00:50:45;;;;;;;;;;;5.00;99.90;;;;;;5052078;28;19904;-73
2022/01/05 00:53:10;;;;;;;;;;;5.10;99.90;;;;;;5071409;28;19919;-71
2022/01/05 00:55:37;;;;;;;;;;;5.10;99.90;;;;;;5070835;28;19974;-72
2022/01/05 00:58:03;;;;;;;;;;;6.50;99.90;;;;;;5053205;28;19920;-73
2022/01/05 01:00:28;;;;;;;;;;;5.20;99.90;;;;;;5070365;28;19961;-72
2022/01/05 01:02:54;;;;;;;;;;;5.20;99.90;;;;;;5070795;28;19934;-72
2022/01/05 01:05:19;;;;;;;;;;;5.20;99.90;;;;;;5070469;28;19905;-72
2022/01/05 01:07:46;;;;;;;;;;;5.20;99.90;;;;;;5070590;28;19918;-72
2022/01/05 01:10:12;;;;;;;;;;;5.20;99.90;;;;;;5052367;28;19904;-72
2022/01/05 01:12:37;;;;;;;;;;;5.20;99.90;;;;;;5070596;28;20366;-73
2022/01/05 01:15:04;;;;;;;;;;;5.20;99.90;;;;;;5052538;28;19994;-72
2022/01/05 01:17:30;;;;;;;;;;;5.20;99.90;;;;;;5070435;28;20255;-71
2022/01/05 01:19:55;;;;;;;;;;;5.30;99.90;;;;;;5052051;28;19961;-72
2022/01/05 01:22:21;;;;;;;;;;;5.30;99.90;;;;;;5070253;28;19912;-72
2022/01/05 01:24:46;;;;;;;;;;;5.30;99.90;;;;;;5070435;28;19908;-72
2022/01/05 01:27:12;;;;;;;;;;;5.40;99.90;;;;;;5069987;28;19912;-73
2022/01/05 01:29:38;;;;;;;;;;;5.40;99.90;;;;;;5051977;28;19961;-72
2022/01/05 01:32:04;;;;;;;;;;;5.40;99.90;;;;;;5037467;28;19911;-72
2022/01/05 01:34:30;;;;;;;;;;;5.40;99.90;;;;;;5050706;28;19904;-72
2022/01/05 01:36:56;;;;;;;;;;;5.40;99.90;;;;;;5063619;28;20074;-72
2022/01/05 01:39:21;;;;;;;;;;;5.40;99.90;;;;;;5069786;28;19909;-72
2022/01/05 01:41:47;;;;;;;;;;;5.40;99.90;;;;;;5057280;28;20050;-70
2022/01/05 01:44:13;;;;;;;;;;;5.40;99.90;;;;;;5050213;28;19954;-71
2022/01/05 01:46:38;;;;;;;;;;;5.50;99.90;;;;;;5042934;28;19991;-71
2022/01/05 01:49:04;;;;;;;;;;;5.50;99.90;;;;;;5051976;28;19912;-72
2022/01/05 01:51:29;;;;;;;;;;;5.50;99.90;;;;;;5069984;28;19904;-72
2022/01/05 01:53:55;;;;;;;;;;;5.50;99.90;;;;;;5052022;28;19916;-72
2022/01/05 01:56:23;;;;;;;;;;;5.50;99.90;;;;;;5070021;28;19944;-72
2022/01/05 01:58:48;;;;;;;;;;;5.50;99.90;;;;;;5069827;28;19923;-72
2022/01/05 02:01:15;;;;;;;;;;;5.50;99.90;;;;;;5051064;28;19904;-72
2022/01/05 02:03:40;;;;;;;;;;;5.60;99.90;;;;;;5070272;28;19938;-73
2022/01/05 02:06:06;;;;;;;;;;;5.60;99.90;;;;;;5051899;28;19904;-72
2022/01/05 02:08:33;;;;;;;;;;;5.60;99.90;;;;;;5070049;28;19923;-72
2022/01/05 02:10:58;;;;;;;;;;;5.60;99.90;;;;;;5051569;28;19954;-71
2022/01/05 02:13:24;;;;;;;;;;;5.60;99.90;;;;;;5070283;28;19912;-71
2022/01/05 02:15:50;;;;;;;;;;;5.70;99.90;;;;;;5069796;28;19950;-71
2022/01/05 02:20:47;;;;;;;;;;;5.70;99.90;;;;;;5065688;28;20016;-71
2022/01/05 02:23:13;;;;;;;;;;;5.70;99.90;;;;;;5050063;28;19920;-72
2022/01/05 02:25:39;;;;;;;;;;;5.70;99.90;;;;;;5051834;28;19977;-71
2022/01/05 02:28:04;;;;;;;;;;;5.70;99.90;;;;;;5069546;28;19958;-72
2022/01/05 02:30:31;;;;;;;;;;;5.80;99.90;;;;;;5068994;28;19915;-72
2022/01/05 02:32:57;;;;;;;;;;;5.80;99.90;;;;;;5051530;28;19912;-72
2022/01/05 02:35:23;;;;;;;;;;;5.80;99.90;;;;;;5069431;28;19924;-73
2022/01/05 02:37:50;;;;;;;;;;;5.80;99.90;;;;;;5051763;28;19916;-71
2022/01/05 02:40:16;;;;;;;;;;;5.90;99.90;;;;;;5069239;28;20132;-72
2022/01/05 02:42:43;;;;;;;;;;;5.90;99.90;;;;;;5049236;28;19931;-72
2022/01/05 02:45:09;;;;;;;;;;;5.90;99.90;;;;;;5031218;28;20356;-71
2022/01/05 02:47:35;;;;;;;;;;;5.90;99.90;;;;;;5050275;28;19913;-71
2022/01/05 02:50:01;;;;;;;;;;;5.90;99.90;;;;;;5069200;28;19991;-72
2022/01/05 02:52:26;;;;;;;;;;;6.00;99.90;;;;;;5069297;28;19922;-71
2022/01/05 02:54:52;;;;;;;;;;;6.00;99.90;;;;;;5069241;28;19908;-72
2022/01/05 02:57:18;;;;;;;;;;;6.00;99.90;;;;;;5051030;28;20003;-70
2022/01/05 02:59:43;;;;;;;;;;;6.00;99.90;;;;;;5069146;28;19908;-73
2022/01/05 03:02:09;;;;;;;;;;;6.10;99.90;;;;;;5069415;28;20240;-71
2022/01/05 03:04:35;;;;;;;;;;;6.10;99.90;;;;;;5051069;28;19904;-72
2022/01/05 03:07:00;;;;;;;;;;;6.10;99.90;;;;;;5050954;28;20213;-73
2022/01/05 03:09:26;;;;;;;;;;;6.20;99.90;;;;;;5051154;28;20359;-72
2022/01/05 03:11:52;;;;;;;;;;;6.20;99.90;;;;;;5038221;28;19917;-72
2022/01/05 03:14:18;;;;;;;;;;;6.20;99.90;;;;;;5035090;28;19905;-73
2022/01/05 03:16:43;;;;;;;;;;;6.30;99.90;;;;;;5046564;28;19944;-72
2022/01/05 03:19:09;;;;;;;;;;;6.30;99.90;;;;;;5072980;28;19927;-72
2022/01/05 03:21:34;;;;;;;;;;;6.30;99.90;;;;;;5054762;28;19999;-73
2022/01/05 03:24:00;;;;;;;;;;;6.30;99.90;;;;;;5054289;28;19923;-73
2022/01/05 03:26:25;;;;;;;;;;;6.30;99.90;;;;;;5072382;28;19966;-72
2022/01/05 03:28:51;;;;;;;;;;;6.40;99.90;;;;;;5072623;28;20364;-72
2022/01/05 03:31:17;;;;;;;;;;;6.40;99.90;;;;;;5054468;28;19905;-72
2022/01/05 03:33:42;;;;;;;;;;;6.40;99.90;;;;;;5054580;28;20003;-71
2022/01/05 03:36:08;;;;;;;;;;;6.50;99.90;;;;;;5037720;28;19992;-72
2022/01/05 03:38:34;;;;;;;;;;;6.50;99.90;;;;;;5072166;28;19970;-72
2022/01/05 03:40:59;;;;;;;;;;;6.50;99.90;;;;;;5045162;28;19913;-72
2022/01/05 03:43:25;;;;;;;;;;;6.50;99.90;;;;;;5032498;28;19913;-72
2022/01/05 03:45:51;;;;;;;;;;;6.50;99.90;;;;;;5036224;28;19959;-73
2022/01/05 03:48:18;;;;;;;;;;;6.50;99.90;;;;;;5052358;28;20348;-74
2022/01/05 03:50:44;;;;;;;;;;;6.50;99.90;;;;;;5051993;28;19904;-72
2022/01/05 03:53:10;;;;;;;;;;;6.50;99.90;;;;;;5052261;28;19962;-72
2022/01/05 03:55:36;;;;;;;;;;;6.50;99.90;;;;;;5051725;28;19952;-71
2022/01/05 03:58:02;;;;;;;;;;;6.60;99.90;;;;;;5052505;28;20491;-73
2022/01/05 04:00:29;;;;;;;;;;;6.60;99.90;;;;;;5050030;28;19996;-73
2022/01/05 04:02:56;;;;;;;;;;;6.60;99.90;;;;;;5052203;28;20304;-72
2022/01/05 04:05:21;;;;;;;;;;;6.70;99.90;;;;;;5051787;28;19904;-72
2022/01/05 04:07:47;;;;;;;;;;;6.70;99.90;;;;;;5052269;28;19912;-72
2022/01/05 04:10:13;;;;;;;;;;;6.80;99.90;;;;;;5050350;28;19956;-72
2022/01/05 04:12:38;;;;;;;;;;;6.70;99.90;;;;;;5032654;28;19967;-73
2022/01/05 04:15:04;;;;;;;;;;;6.70;99.90;;;;;;5031919;28;19905;-73
2022/01/05 04:17:30;;;;;;;;;;;6.70;99.90;;;;;;5049990;28;19946;-72
2022/01/05 04:19:55;;;;;;;;;;;6.80;99.90;;;;;;5051174;28;19916;-74
2022/01/05 04:22:21;;;;;;;;;;;6.80;99.90;;;;;;5051589;28;19913;-73
2022/01/05 04:24:46;;;;;;;;;;;6.80;99.90;;;;;;5049365;28;19905;-73
2022/01/05 04:27:12;;;;;;;;;;;6.80;99.90;;;;;;5051470;28;19920;-71
2022/01/05 04:29:38;;;;;;;;;;;6.80;99.90;;;;;;5050242;28;20184;-72
2022/01/05 04:32:04;;;;;;;;;;;6.90;99.90;;;;;;5051635;28;20034;-72
2022/01/05 04:34:29;;;;;;;;;;;6.80;99.90;;;;;;5051942;28;19905;-73
2022/01/05 04:36:55;;;;;;;;;;;6.90;99.90;;;;;;5049928;28;20272;-72
2022/01/05 04:39:20;;;;;;;;;;;6.90;99.90;;;;;;5050880;28;19913;-72
2022/01/05 04:41:46;;;;;;;;;;;6.90;99.90;;;;;;5037463;28;19932;-72
2022/01/05 04:44:12;;;;;;;;;;;7.00;99.90;;;;;;5031996;28;20276;-72
2022/01/05 04:46:37;;;;;;;;;;;7.00;99.90;;;;;;5041505;28;19912;-72
2022/01/05 04:49:04;;;;;;;;;;;7.00;99.90;;;;;;5051047;28;19923;-73
2022/01/05 04:51:30;;;;;;;;;;;7.00;99.90;;;;;;5051025;28;19995;-72
2022/01/05 04:53:55;;;;;;;;;;;7.00;99.90;;;;;;5051666;28;20352;-73
2022/01/05 04:56:21;;;;;;;;;;;7.00;99.90;;;;;;5050843;28;20437;-73
2022/01/05 04:58:47;;;;;;;;;;;7.00;99.90;;;;;;5050673;28;20011;-72
2022/01/05 05:01:12;;;;;;;;;;;7.00;99.90;;;;;;5041938;28;19908;-72
2022/01/05 05:03:38;;;;;;;;;;;6.90;99.90;;;;;;5031449;28;19913;-73
2022/01/05 05:06:03;;;;;;;;;;;6.90;99.90;;;;;;5036775;28;20000;-72
2022/01/05 05:08:29;;;;;;;;;;;7.00;99.90;;;;;;5048977;28;20273;-72
2022/01/05 05:10:54;;;;;;;;;;;7.00;99.90;;;;;;5050426;28;19992;-72
2022/01/05 05:13:20;;;;;;;;;;;7.00;99.90;;;;;;5051459;28;19913;-72
2022/01/05 05:15:46;;;;;;;;;;;7.10;99.90;;;;;;5048977;28;19920;-72
2022/01/05 05:18:11;;;;;;;;;;;7.10;99.90;;;;;;5050344;28;19917;-73
2022/01/05 05:20:37;;;;;;;;;;;7.20;99.90;;;;;;5050170;28;19904;-72
2022/01/05 05:23:03;;;;;;;;;;;7.20;99.90;;;;;;5050741;28;20203;-72
2022/01/05 05:25:28;;;;;;;;;;;7.30;99.90;;;;;;5048893;28;20401;-71
2022/01/05 05:27:54;;;;;;;;;;;7.30;99.90;;;;;;5048967;28;20507;-72
2022/01/05 05:30:20;;;;;;;;;;;7.30;99.90;;;;;;5048577;28;19905;-73
2022/01/05 05:32:45;;;;;;;;;;;7.30;99.90;;;;;;5049124;28;20368;-72
2022/01/05 05:35:11;;;;;;;;;;;7.30;99.90;;;;;;5050148;28;19905;-72
2022/01/05 05:37:36;;;;;;;;;;;7.40;99.90;;;;;;5049988;28;19917;-73
2022/01/05 05:40:03;;;;;;;;;;;7.40;99.90;;;;;;5050001;28;20080;-73
2022/01/05 05:42:28;;;;;;;;;;;7.50;99.90;;;;;;5030810;28;19921;-74
2022/01/05 05:44:54;;;;;;;;;;;7.50;99.90;;;;;;5029301;28;19959;-73
2022/01/05 05:47:20;;;;;;;;;;;7.50;99.90;;;;;;5046741;28;20320;-72
2022/01/05 05:49:46;;;;;;;;;;;7.50;99.90;;;;;;5048585;28;20275;-72
2022/01/05 05:52:12;;;;;;;;;;;7.60;99.90;;;;;;5049844;28;20345;-73
2022/01/05 05:54:37;;;;;;;;;;;7.60;99.90;;;;;;5050662;28;19986;-72
2022/01/05 05:57:03;;;;;;;;;;;7.60;99.90;;;;;;5048149;28;19912;-72
2022/01/05 05:59:29;;;;;;;;;;;7.60;99.90;;;;;;5049543;28;20368;-73
2022/01/05 06:01:54;;;;;;;;;;;7.60;99.90;;;;;;5049804;28;19905;-73
2022/01/05 06:04:20;;;;;;;;;;;7.30;99.90;;;;;;5049977;28;19909;-73
2022/01/05 06:06:45;;;;;;;;;;;7.70;99.90;;;;;;5049312;28;19904;-73
2022/01/05 06:09:11;;;;;;;;;;;7.70;99.90;;;;;;5050156;28;19966;-73
2022/01/05 06:11:37;;;;;;;;;;;7.70;99.90;;;;;;5048303;28;19912;-73
2022/01/05 06:14:02;;;;;;;;;;;7.70;99.90;;;;;;5050498;28;19928;-72
2022/01/05 06:16:28;;;;;;;;;;;7.80;99.90;;;;;;5040055;28;19909;-73
2022/01/05 06:18:53;;;;;;;;;;;7.80;99.90;;;;;;5029888;28;19960;-73
2022/01/05 06:21:19;;;;;;;;;;;7.80;99.90;;;;;;5036574;28;19910;-74
2022/01/05 06:23:44;;;;;;;;;;;9.30;99.90;;;;;;5048673;28;19940;-73
2022/01/05 06:26:10;;;;;;;;;;;8.00;99.90;;;;;;5048825;28;19916;-73
2022/01/05 06:28:36;;;;;;;;;;;8.10;99.90;;;;;;5048673;28;20322;-73
2022/01/05 06:31:01;;;;;;;;;;;8.20;99.90;;;;;;5047981;28;19912;-73
2022/01/05 06:33:27;;;;;;;;;;;8.30;99.90;;;;;;5050038;28;19913;-73
2022/01/05 06:35:52;;;;;;;;;;;8.30;99.90;;;;;;5047703;28;19948;-73
2022/01/05 06:38:18;;;;;;;;;;;8.40;99.90;;;;;;5047940;28;19916;-73
2022/01/05 06:40:43;;;;;;;;;;;8.40;99.90;;;;;;5045720;28;19909;-74
2022/01/05 06:43:09;;;;;;;;;;;8.50;99.90;;;;;;5049688;28;19921;-72
2022/01/05 06:45:34;;;;;;;;;;;8.50;99.90;;;;;;5033358;28;20005;-74
2022/01/05 06:48:00;;;;;;;;;;;8.60;99.90;;;;;;5071698;28;19913;-72
2022/01/05 06:50:26;;;;;;;;;;;8.60;99.90;;;;;;5072973;28;20355;-72
2022/01/05 06:52:55;;;;;;;;;;;8.70;99.90;;;;;;5074024;28;20375;-73
2022/01/05 06:55:23;;;;;;;;;;;8.70;99.90;;;;;;5073294;28;19925;-73
2022/01/05 06:57:51;;;;;;;;;;;8.80;99.90;;;;;;5054921;28;19916;-74
2022/01/05 07:00:17;;;;;;;;;;;8.80;99.90;;;;;;5054931;28;20371;-72
2022/01/05 07:02:42;;;;;;;;;;;8.90;99.90;;;;;;5073175;28;19969;-74
2022/01/05 07:05:08;;;;;;;;;;;8.90;99.90;;;;;;5072926;28;19916;-72
2022/01/05 07:07:35;;;;;;;;;;;9.00;99.90;;;;;;5054064;28;19915;-74
2022/01/05 07:10:00;;;;;;;;;;;9.10;99.90;;;;;;5072718;28;20253;-73
2022/01/05 07:12:26;;;;;;;;;;;9.10;99.90;;;;;;5072720;28;19908;-73
2022/01/05 07:14:51;;;;;;;;;;;9.10;99.90;;;;;;5054971;28;19909;-74
2022/01/05 07:17:18;;;;;;;;;;;9.10;99.90;;;;;;5054635;28;20273;-73
2022/01/05 07:19:44;;;;;;;;;;;9.10;99.90;;;;;;5072491;28;19916;-73
2022/01/05 07:22:09;;;;;;;;;;;9.20;99.90;;;;;;5072579;28;19939;-74
2022/01/05 07:24:35;;;;;;;;;;;9.20;99.90;;;;;;5072721;28;19909;-72
2022/01/05 07:27:00;;;;;;;;;;;9.30;99.90;;;;;;5072845;28;19911;-73
2022/01/05 07:29:26;;;;;;;;;;;9.30;99.90;;;;;;5072211;28;19908;-74
2022/01/05 07:31:52;;;;;;;;;;;9.20;99.90;;;;;;5054370;28;19904;-73
2022/01/05 07:34:17;;;;;;;;;;;9.20;99.90;;;;;;5054232;28;19909;-73
2022/01/05 07:36:43;;;;;;;;;;;9.20;99.90;;;;;;5054328;28;19912;-73
2022/01/05 07:39:08;;;;;;;;;;;9.10;99.90;;;;;;5072448;28;19963;-73
2022/01/05 07:41:35;;;;;;;;;;;9.10;99.90;;;;;;5051400;28;19931;-73
2022/01/05 07:44:01;;;;;;;;;;;9.10;99.90;;;;;;5054587;28;19909;-73
2022/01/05 07:46:27;;;;;;;;;;;9.10;99.90;;;;;;5054044;28;20353;-73
2022/01/05 07:48:52;;;;;;;;;;;9.10;99.90;;;;;;5071873;28;19970;-73
2022/01/05 07:51:18;;;;;;;;;;;9.00;99.90;;;;;;5071852;28;19920;-73
2022/01/05 07:53:43;;;;;;;;;;;9.10;99.90;;;;;;5072380;28;19908;-73
2022/01/05 07:56:09;;;;;;;;;;;9.00;99.90;;;;;;5071913;28;20007;-73
2022/01/05 07:58:35;;;;;;;;;;;9.10;99.90;;;;;;5052791;28;19919;-73
2022/01/05 08:01:01;;;;;;;;;;;9.10;99.90;;;;;;5071636;28;20368;-73
2022/01/05 08:03:26;;;;;;;;;;;9.20;99.90;;;;;;5072408;28;19919;-74
2022/01/05 08:05:52;;;;;;;;;;;9.30;99.90;;;;;;5053918;28;19912;-74
2022/01/05 08:08:18;;;;;;;;;;;9.30;99.90;;;;;;5053910;28;19905;-74
2022/01/05 08:10:43;;;;;;;;;;;9.30;99.90;;;;;;5050284;28;19928;-74
2022/01/05 08:13:09;;;;;;;;;;;9.30;99.90;;;;;;5052153;28;19905;-74
2022/01/05 08:15:34;;;;;;;;;;;9.30;99.90;;;;;;5036040;28;20217;-73
2022/01/05 08:18:00;;;;;;;;;;;9.30;99.90;;;;;;5072055;28;20011;-73
2022/01/05 08:20:25;;;;;;;;;;;9.30;99.90;;;;;;5071306;28;19923;-74
2022/01/05 08:22:51;;;;;;;;;;;9.40;99.90;;;;;;5071736;28;19983;-74
2022/01/05 08:25:18;;;;;;;;;;;9.40;99.90;;;;;;5071678;28;19917;-73
2022/01/05 08:27:46;;;;;;;;;;;9.50;99.90;;;;;;5071994;28;20237;-73
2022/01/05 08:30:14;;;;;;;;;;;9.50;99.90;;;;;;5071016;28;19917;-74
2022/01/05 08:32:40;;;;;;;;;;;9.60;99.90;;;;;;5053325;28;19909;-74
2022/01/05 08:35:06;;;;;;;;;;;9.70;99.90;;;;;;5053485;28;19912;-73
2022/01/05 08:37:31;;;;;;;;;;;9.90;99.90;;;;;;5071406;28;19923;-73
2022/01/05 08:39:57;;;;;;;;;;;9.90;99.90;;;;;;5070821;28;20005;-73
2022/01/05 08:42:23;;;;;;;;;;;10.50;99.90;;;;;;5035575;28;19921;-74
2022/01/05 08:44:48;;;;;;;;;;;9.70;99.90;;;;;;5033563;28;20003;-73
2022/01/05 08:47:14;;;;;;;;;;;10.00;99.90;;;;;;5066873;28;19912;-73
2022/01/05 08:49:40;;;;;;;;;;;10.50;99.90;;;;;;5052840;28;19914;-73
2022/01/05 08:52:05;;;;;;;;;;;10.70;99.90;;;;;;5070778;28;20423;-74
2022/01/05 08:54:31;;;;;;;;;;;11.10;99.90;;;;;;5053159;28;19908;-74
2022/01/05 08:56:57;;;;;;;;;;;11.00;99.90;;;;;;5053037;28;19994;-74
2022/01/05 08:59:22;;;;;;;;;;;10.70;99.90;;;;;;5070562;28;19912;-74
2022/01/05 09:01:48;;;;;;;;;;;10.50;99.90;;;;;;5070484;28;19999;-74
2022/01/05 09:04:13;;;;;;;;;;;10.40;99.90;;;;;;5053199;28;19924;-73
2022/01/05 09:06:39;;;;;;;;;;;10.40;99.90;;;;;;5070474;28;20410;-74
2022/01/05 09:09:04;;;;;;;;;;;10.50;99.90;;;;;;5052646;28;19908;-73
2022/01/05 09:11:30;;;;;;;;;;;10.80;99.90;;;;;;5070089;28;19909;-72
2022/01/05 09:13:56;;;;;;;;;;;10.70;99.90;;;;;;5071273;28;19948;-73
2022/01/05 09:16:21;;;;;;;;;;;10.50;99.90;;;;;;5070693;28;19908;-74
2022/01/05 09:18:47;;;;;;;;;;;10.50;99.90;;;;;;5070627;28;20001;-74
2022/01/05 09:21:13;;;;;;;;;;;10.80;99.90;;;;;;5051941;28;19915;-74
2022/01/05 09:23:38;;;;;;;;;;;10.90;99.90;;;;;;5052734;28;19962;-74
2022/01/05 09:26:04;;;;;;;;;;;11.00;99.90;;;;;;5070130;28;19917;-74
2022/01/05 09:28:30;;;;;;;;;;;11.10;99.90;;;;;;5070241;28;19912;-67
2022/01/05 09:30:55;;;;;;;;;;;11.10;99.90;;;;;;5069629;28;19961;-66
2022/01/05 09:33:24;;;;;;;;;;;11.00;99.90;;;;;;5070611;28;19908;-66
2022/01/05 09:36:00;;;;;;;;;;;10.90;99.90;;;;;;5069380;28;19912;-68
2022/01/05 09:43:57;;;;;;;;;;;11.30;99.90;;;;;;5050170;28;19931;-66
2022/01/05 09:46:43;;;;;;;;;;;11.30;99.90;;;;;;5040844;28;19908;-67
2022/01/05 09:49:16;;;;;;;;;;;11.20;99.90;;;;;;5068675;28;19919;-67
2022/01/05 09:51:42;;;;;;;;;;;11.00;99.90;;;;;;5051048;28;19918;-68
2022/01/05 09:54:09;;;;;;;;;;;10.80;99.90;;;;;;5069956;28;19908;-67
2022/01/05 09:56:34;;;;;;;;;;;10.70;99.90;;;;;;5058821;28;19909;-66
2022/01/05 09:59:04;;;;;;;;;;;10.50;99.90;;;;;;5049593;28;20229;-67
2022/01/05 10:01:33;;;;;;;;;;;10.40;99.90;;;;;;5059219;28;19916;-67
2022/01/05 10:04:00;;;;;;;;;;;10.40;99.90;;;;;;5069911;28;19953;-66
2022/01/05 10:06:25;;;;;;;;;;;10.30;99.90;;;;;;5069067;28;20130;-67
2022/01/05 10:08:51;;;;;;;;;;;10.30;99.90;;;;;;5069400;28;19957;-67
2022/01/05 10:11:17;;;;;;;;;;;10.30;99.90;;;;;;5069027;28;19947;-66
2022/01/05 10:13:43;;;;;;;;;;;10.30;99.90;;;;;;5069467;28;19969;-66
2022/01/05 10:16:10;;;;;;;;;;;10.40;99.90;;;;;;5050935;28;19909;-67
2022/01/05 10:18:39;;;;;;;;;;;10.50;99.90;;;;;;5069294;28;19912;-66
2022/01/05 10:21:06;;;;;;;;;;;10.40;99.90;;;;;;5068802;28;19912;-67
2022/01/05 10:23:31;;;;;;;;;;;10.30;99.90;;;;;;5072657;28;19909;-67
2022/01/05 10:26:16;;;;;;;;;;;10.30;99.90;;;;;;5067474;28;19916;-67
2022/01/05 10:28:42;;;;;;;;;;;10.20;99.90;;;;;;5053059;28;19954;-67
2022/01/05 10:31:12;;;;;;;;;;;10.20;99.90;;;;;;5059775;28;19995;-66
2022/01/05 10:33:38;;;;;;;;;;;10.20;99.90;;;;;;5073541;28;19908;-67
2022/01/05 10:36:03;;;;;;;;;;;10.30;99.90;;;;;;5072723;28;19986;-65
2022/01/05 10:38:29;;;;;;;;;;;10.00;99.90;;;;;;5073479;28;19912;-66
2022/01/05 10:40:55;;;;;;;;;;;10.50;99.90;;;;;;5072394;28;19970;-67
2022/01/05 10:43:20;;;;;;;;;;;10.50;99.90;;;;;;5055204;28;19944;-66
2022/01/05 10:45:47;;;;;;;;;;;10.50;99.90;;;;;;5072593;28;19908;-65
2022/01/05 10:48:14;;;;;;;;;;;10.50;99.90;;;;;;5073325;28;20007;-66
2022/01/05 10:50:41;;;;;;;;;;;10.40;99.90;;;;;;5069164;28;19931;-67
2022/01/05 10:53:08;;;;;;;;;;;10.30;99.90;;;;;;5035048;28;19908;-67
2022/01/05 10:55:42;;;;;;;;;;;10.20;99.90;;;;;;5054617;28;19923;-67
2022/01/05 10:58:11;;;;;;;;;;;10.20;99.90;;;;;;5073104;28;19915;-66
2022/01/05 11:00:53;;;;;;;;;;;10.20;99.90;;;;;;5072010;28;20349;-67
2022/01/05 11:03:39;;;;;;;;;;;10.20;99.90;;;;;;5072929;28;20352;-67
2022/01/05 11:06:05;;;;;;;;;;;10.20;99.90;;;;;;5072251;28;19912;-68
2022/01/05 11:08:31;;;;;;;;;;;10.30;99.90;;;;;;5072792;28;19916;-67
2022/01/05 11:10:57;;;;;;;;;;;10.40;99.90;;;;;;5071537;28;19947;-67
2022/01/05 11:13:23;;;;;;;;;;;10.70;99.90;;;;;;5072317;28;19946;-66
2022/01/05 11:15:55;;;;;;;;;;;10.90;99.90;;;;;;5054140;28;20007;-67
2022/01/05 11:18:21;;;;;;;;;;;11.10;99.90;;;;;;5072533;28;20014;-67
2022/01/05 11:20:47;;;;;;;;;;;11.30;99.90;;;;;;5071707;28;19991;-67
2022/01/05 11:23:13;;;;;;;;;;;11.30;99.90;;;;;;5054383;28;19908;-67
2022/01/05 11:25:41;;;;;;;;;;;11.40;99.90;;;;;;5071682;28;20011;-68
2022/01/05 11:28:07;;;;;;;;;;;11.50;99.90;;;;;;5072118;28;19914;-68
2022/01/05 11:30:33;;;;;;;;;;;11.40;99.90;;;;;;5053896;28;19995;-67
2022/01/05 11:32:59;;;;;;;;;;;11.40;99.90;;;;;;5071839;28;19912;-66
2022/01/05 11:35:25;;;;;;;;;;;11.30;99.90;;;;;;5071712;28;19919;-67
2022/01/05 11:37:51;;;;;;;;;;;11.30;99.90;;;;;;5054253;28;20347;-66
2022/01/05 11:40:17;;;;;;;;;;;11.40;99.90;;;;;;5072029;28;19916;-68
2022/01/05 11:42:45;;;;;;;;;;;11.50;99.90;;;;;;5050973;28;20360;-67
2022/01/05 11:45:11;;;;;;;;;;;11.80;99.90;;;;;;5033801;28;20434;-68
2022/01/05 11:47:40;;;;;;;;;;;11.80;99.90;;;;;;5070405;28;19934;-68
2022/01/05 11:50:21;;;;;;;;;;;11.90;99.90;;;;;;5071973;28;19919;-67
2022/01/05 11:52:55;;;;;;;;;;;11.70;99.90;;;;;;5051891;28;19985;-68
2022/01/05 11:55:20;;;;;;;;;;;11.50;99.90;;;;;;5051445;28;20046;-67
2022/01/05 11:58:04;;;;;;;;;;;11.20;99.90;;;;;;5071820;28;20010;-68
2022/01/05 12:00:30;;;;;;;;;;;10.90;99.90;;;;;;5069852;28;19974;-67
2022/01/05 12:02:55;;;;;;;;;;;10.60;99.90;;;;;;5051623;28;19944;-67
2022/01/05 12:05:21;;;;;;;;;;;10.50;99.90;;;;;;5051304;28;20225;-66
2022/01/05 12:07:47;;;;;;;;;;;10.40;99.90;;;;;;5053202;28;20280;-66
2022/01/05 12:10:24;;;;;;;;;;;10.40;99.90;;;;;;5071440;28;19999;-66
2022/01/05 12:13:06;;;;;;;;;;;10.30;99.90;;;;;;5051173;28;20391;-67
2022/01/05 12:15:43;;;;;;;;;;;10.20;99.90;;;;;;5052473;28;19916;-66
2022/01/05 12:18:09;;;;;;;;;;;10.10;99.90;;;;;;5053052;28;19923;-68
2022/01/05 12:20:36;;;;;;;;;;;10.00;99.90;;;;;;5071191;28;19909;-67
2022/01/05 12:23:14;;;;;;;;;;;9.80;99.90;;;;;;5071635;28;20356;-67
2022/01/05 12:25:59;;;;;;;;;;;9.80;99.90;;;;;;5070125;28;19942;-68
2022/01/05 12:28:29;;;;;;;;;;;9.80;99.90;;;;;;5071071;28;19962;-66
2022/01/05 12:30:55;;;;;;;;;;;9.70;99.90;;;;;;5053157;28;20322;-67
2022/01/05 12:33:20;;;;;;;;;;;9.70;99.90;;;;;;5052878;28;19912;-68
2022/01/05 12:35:47;;;;;;;;;;;9.60;99.90;;;;;;5070438;28;19919;-67
2022/01/05 12:38:32;;;;;;;;;;;9.60;99.90;;;;;;5052806;28;19930;-67
2022/01/05 12:40:58;;;;;;;;;;;9.60;99.90;;;;;;5065276;28;19925;-66
2022/01/05 12:43:23;;;;;;;;;;;9.50;99.90;;;;;;5050842;28;19921;-66
2022/01/05 12:45:51;;;;;;;;;;;9.40;99.90;;;;;;5053292;28;19916;-67
2022/01/05 12:48:32;;;;;;;;;;;9.40;99.90;;;;;;5053090;28;20424;-66
2022/01/05 12:51:16;;;;;;;;;;;9.40;99.90;;;;;;5052226;28;19915;-67
2022/01/05 12:53:51;;;;;;;;;;;9.40;99.90;;;;;;5070092;28;20390;-67
2022/01/05 12:56:21;;;;;;;;;;;9.30;99.90;;;;;;5062427;28;20379;-66
2022/01/05 12:58:48;;;;;;;;;;;9.30;99.90;;;;;;5050770;28;19919;-68
2022/01/05 13:01:14;;;;;;;;;;;9.20;99.90;;;;;;5057922;28;20007;-66
2022/01/05 13:03:40;;;;;;;;;;;9.10;99.90;;;;;;5070730;28;20011;-67
2022/01/05 13:06:16;;;;;;;;;;;9.10;99.90;;;;;;5069883;28;19912;-67
2022/01/05 13:08:52;;;;;;;;;;;9.10;99.90;;;;;;5052851;28;19912;-68
2022/01/05 13:11:34;;;;;;;;;;;9.10;99.90;;;;;;5070067;28;19908;-67
2022/01/05 13:14:09;;;;;;;;;;;9.00;99.90;;;;;;5069797;28;20143;-68
2022/01/05 13:16:34;;;;;;;;;;;9.00;99.90;;;;;;5070046;28;19982;-66
2022/01/05 13:19:00;;;;;;;;;;;9.00;99.90;;;;;;5069868;28;19975;-67
2022/01/05 13:21:41;;;;;;;;;;;9.00;99.90;;;;;;5069601;28;19908;-66
2022/01/05 13:24:07;;;;;;;;;;;9.00;99.90;;;;;;5069801;28;19958;-65
2022/01/05 13:26:33;;;;;;;;;;;8.90;99.90;;;;;;5041446;28;20011;-66
2022/01/05 13:29:18;;;;;;;;;;;8.90;99.90;;;;;;5050191;28;19915;-67
2022/01/05 13:31:57;;;;;;;;;;;8.90;99.90;;;;;;5060659;28;19940;-63
2022/01/05 13:34:36;;;;;;;;;;;8.90;99.90;;;;;;5068992;28;19920;-68
2022/01/05 13:37:02;;;;;;;;;;;9.00;99.90;;;;;;5055560;28;19909;-67
2022/01/05 13:39:37;;;;;;;;;;;9.00;99.90;;;;;;5067219;28;20360;-66
2022/01/05 13:42:02;;;;;;;;;;;8.90;99.90;;;;;;5054981;28;19948;-67
2022/01/05 13:44:28;;;;;;;;;;;8.90;99.90;;;;;;5049406;28;19978;-66
2022/01/05 13:46:54;;;;;;;;;;;8.90;99.90;;;;;;5049263;28;20003;-67
2022/01/05 13:49:19;;;;;;;;;;;8.90;99.90;;;;;;5049649;28;19956;-67
2022/01/05 13:52:04;;;;;;;;;;;8.80;99.90;;;;;;5060917;28;19987;-66
2022/01/05 13:54:30;;;;;;;;;;;8.80;99.90;;;;;;5068897;28;19917;-67
2022/01/05 13:56:56;;;;;;;;;;;8.80;99.90;;;;;;5050744;28;19904;-66
2022/01/05 13:59:21;;;;;;;;;;;8.80;99.90;;;;;;5069367;28;19951;-66
2022/01/05 14:01:57;;;;;;;;;;;7.90;99.90;;;;;;5069171;28;19954;-65
2022/01/05 14:04:22;;;;;;;;;;;8.80;99.90;;;;;;5068827;28;19916;-66
2022/01/05 14:06:56;;;;;;;;;;;8.70;99.90;;;;;;5068773;28;19949;-66
2022/01/05 14:09:27;;;;;;;;;;;8.70;99.90;;;;;;5069762;28;19917;-66
2022/01/05 14:11:57;;;;;;;;;;;8.70;99.90;;;;;;5069071;28;19948;-66
2022/01/05 14:14:22;;;;;;;;;;;8.70;99.90;;;;;;5069285;28;19947;-66
2022/01/05 14:16:48;;;;;;;;;;;8.80;99.90;;;;;;5056785;28;20329;-66
2022/01/05 14:19:15;;;;;;;;;;;8.80;99.90;;;;;;5049875;28;20007;-65
2022/01/05 14:21:44;;;;;;;;;;;8.70;99.90;;;;;;5060874;28;19987;-66
2022/01/05 14:24:09;;;;;;;;;;;8.70;99.90;;;;;;5069270;28;20003;-67
2022/01/05 14:26:40;;;;;;;;;;;8.70;99.90;;;;;;5069108;28;19999;-67
2022/01/05 14:29:06;;;;;;;;;;;8.70;99.90;;;;;;5051502;28;20269;-68
2022/01/05 14:31:36;;;;;;;;;;;8.70;99.90;;;;;;5069089;28;20245;-65
2022/01/05 14:34:02;;;;;;;;;;;8.70;99.90;;;;;;5069284;28;19944;-66